Time;durP1;ratioP1;P1;durP2;ratioP2;P2;SDS_P1;SDS_P2;PMS_P1;PMS_P2;Temp;Humidity;BMP_temperature;BMP_pressure;BME280_temperature;BME280_humidity;BME280_pressure;Samples;Min_cycle;Max_cycle;Signal;HPM_P1;HPM_P2
2023/03/19 00:00:22;;;;;;;5.55;3.83;;;;;;;10.54;100.00;100961.84;1047357;28;20302;-75
2023/03/19 00:00:54;;;;;;;2.58;2.38;;;;;;;10.50;100.00;100957.97;1043738;28;20299;-75
2023/03/19 00:01:26;;;;;;;2.38;2.25;;;;;;;10.49;100.00;100964.31;1043415;28;20303;-74
2023/03/19 00:01:59;;;;;;;3.20;2.90;;;;;;;10.49;100.00;100961.66;1038264;28;20327;-74
2023/03/19 00:02:50;;;;;;;3.80;2.60;;;;;;;10.49;100.00;100965.13;1033924;28;20844;-74
2023/03/19 00:03:21;;;;;;;3.25;2.55;;;;;;;10.51;100.00;100957.75;1031354;28;20791;-74
2023/03/19 00:03:53;;;;;;;3.15;2.72;;;;;;;10.44;100.00;100964.16;1030189;28;20312;-74
2023/03/19 00:04:25;;;;;;;3.97;2.88;;;;;;;10.38;100.00;100962.31;1033306;28;20358;-75
2023/03/19 00:04:57;;;;;;;6.43;3.05;;;;;;;10.44;100.00;100967.63;1035920;28;20284;-74
2023/03/19 00:05:29;;;;;;;4.88;2.63;;;;;;;10.46;100.00;100959.44;1039672;28;20299;-74
2023/03/19 00:06:01;;;;;;;4.40;2.33;;;;;;;10.54;100.00;100967.16;1044058;28;20777;-75
2023/03/19 00:06:32;;;;;;;2.70;2.47;;;;;;;10.52;100.00;100959.38;1047162;28;20299;-74
2023/03/19 00:07:04;;;;;;;4.60;2.38;;;;;;;10.49;100.00;100964.31;1042596;28;20299;-74
2023/03/19 00:07:36;;;;;;;4.72;3.25;;;;;;;10.56;100.00;100959.78;1034579;28;20304;-74
2023/03/19 00:08:08;;;;;;;3.28;2.60;;;;;;;10.56;100.00;100965.09;1035473;28;20740;-75
2023/03/19 00:08:40;;;;;;;3.08;2.78;;;;;;;10.69;100.00;100957.06;1044174;28;20317;-74
2023/03/19 00:09:12;;;;;;;2.20;2.00;;;;;;;10.65;100.00;100963.81;1047018;28;20384;-75
2023/03/19 00:09:44;;;;;;;2.05;1.95;;;;;;;10.66;100.00;100959.31;1044368;28;20299;-75
2023/03/19 00:10:16;;;;;;;3.55;2.13;;;;;;;10.59;100.00;100959.34;1043414;28;20664;-75
2023/03/19 00:10:48;;;;;;;3.13;2.25;;;;;;;10.63;100.00;100955.22;1043000;28;20330;-74
2023/03/19 00:11:19;;;;;;;6.15;2.38;;;;;;;10.61;100.00;100957.28;1039136;28;20778;-74
2023/03/19 00:11:51;;;;;;;4.03;2.13;;;;;;;10.62;100.00;100958.91;1039698;28;20774;-75
2023/03/19 00:12:22;;;;;;;4.40;2.53;;;;;;;10.58;100.00;100956.91;1043388;28;20646;-75
2023/03/19 00:12:54;;;;;;;3.17;1.98;;;;;;;10.60;100.00;100960.97;1042872;28;20733;-75
2023/03/19 00:13:26;;;;;;;3.38;2.63;;;;;;;10.61;100.00;100957.28;1042462;28;20307;-74
2023/03/19 00:13:57;;;;;;;4.60;2.03;;;;;;;10.64;100.00;100966.69;1043901;28;20302;-74
2023/03/19 00:14:29;;;;;;;5.32;1.92;;;;;;;10.74;100.00;100962.56;1043013;28;20307;-75
2023/03/19 00:15:01;;;;;;;3.38;2.40;;;;;;;10.74;100.00;100959.88;1042556;28;20345;-75
2023/03/19 00:15:32;;;;;;;2.65;2.05;;;;;;;10.70;100.00;100961.34;1039302;28;20296;-74
2023/03/19 00:16:06;;;;;;;2.42;2.22;;;;;;;10.74;100.00;100973.22;1034701;28;20301;-75
2023/03/19 00:16:38;;;;;;;3.35;2.75;;;;;;;10.75;100.00;100964.19;1031643;28;20301;-74
2023/03/19 00:17:10;;;;;;;3.33;2.10;;;;;;;10.69;100.00;100964.22;1036087;28;20300;-75
2023/03/19 00:17:42;;;;;;;3.47;2.22;;;;;;;10.71;100.00;100968.31;1039995;28;20304;-75
2023/03/19 00:18:14;;;;;;;3.28;2.05;;;;;;;10.78;100.00;100958.41;1043161;28;20382;-75
2023/03/19 00:18:46;;;;;;;3.72;2.08;;;;;;;10.67;100.00;100966.25;1038834;28;20308;-75
2023/03/19 00:19:18;;;;;;;2.55;2.20;;;;;;;10.65;100.00;100966.47;1039451;28;20298;-75
2023/03/19 00:19:50;;;;;;;3.13;2.05;;;;;;;10.66;100.00;100962.78;1034707;28;20292;-75
2023/03/19 00:20:21;;;;;;;6.05;2.35;;;;;;;10.65;100.00;100963.00;1036042;28;20299;-75
2023/03/19 00:20:53;;;;;;;3.85;3.17;;;;;;;10.72;100.00;100964.63;1043174;28;20328;-75
2023/03/19 00:21:24;;;;;;;5.43;1.95;;;;;;;10.68;100.00;100962.56;1042249;28;20299;-74
2023/03/19 00:21:57;;;;;;;2.65;1.92;;;;;;;10.66;100.00;100965.44;1043516;28;20816;-75
2023/03/19 00:22:29;;;;;;;3.10;2.08;;;;;;;10.66;100.00;100964.63;1043589;28;20318;-75
2023/03/19 00:23:00;;;;;;;1.95;1.73;;;;;;;10.65;100.00;100963.81;1041277;28;20759;-75
2023/03/19 00:23:32;;;;;;;2.13;1.90;;;;;;;10.70;100.00;100972.00;1039019;28;20839;-75
2023/03/19 00:24:04;;;;;;;5.03;2.78;;;;;;;10.60;100.00;100971.63;1038855;28;20292;-75
2023/03/19 00:24:36;;;;;;;2.28;1.90;;;;;;;10.62;100.00;100966.91;1039382;28;20726;-75
2023/03/19 00:25:08;;;;;;;3.03;1.95;;;;;;;10.70;100.00;100969.34;1039286;28;20319;-74
2023/03/19 00:25:40;;;;;;;2.88;1.88;;;;;;;10.68;100.00;100962.56;1042271;28;20400;-75
2023/03/19 00:26:12;;;;;;;2.60;1.90;;;;;;;10.66;100.00;100962.78;1043419;28;20295;-75
2023/03/19 00:26:44;;;;;;;2.65;1.60;;;;;;;10.69;100.00;100964.22;1042784;28;20339;-74
2023/03/19 00:27:16;;;;;;;3.22;1.77;;;;;;;10.70;100.00;100966.69;1043122;28;20689;-74
2023/03/19 00:27:47;;;;;;;2.17;1.90;;;;;;;10.68;100.00;100960.75;1043221;28;20299;-75
2023/03/19 00:28:19;;;;;;;1.83;1.73;;;;;;;10.79;100.00;100960.06;1042962;28;20904;-74
2023/03/19 00:28:50;;;;;;;2.83;1.75;;;;;;;10.73;100.00;100960.91;1043219;28;20320;-74
2023/03/19 00:29:22;;;;;;;4.05;1.35;;;;;;;10.70;100.00;100966.69;1039087;28;20382;-74
2023/03/19 00:29:54;;;;;;;4.07;1.90;;;;;;;10.77;100.00;100964.78;1039722;28;20292;-75
2023/03/19 00:30:25;;;;;;;1.90;1.50;;;;;;;10.72;100.00;100959.28;1038993;28;20689;-74
2023/03/19 00:31:15;;;;;;;2.45;1.77;;;;;;;10.74;100.00;100962.56;1038201;28;20307;-75
2023/03/19 00:31:47;;;;;;;2.38;1.70;;;;;;;10.78;100.00;100957.59;1041310;28;20292;-75
2023/03/19 00:32:18;;;;;;;3.15;1.35;;;;;;;10.81;100.00;100958.00;1041183;28;20318;-75
2023/03/19 00:32:51;;;;;;;5.28;1.48;;;;;;;10.86;100.00;100959.19;1037750;28;20303;-75
2023/03/19 00:33:24;;;;;;;3.28;1.48;;;;;;;10.95;100.00;100957.88;1038682;28;20383;-74
2023/03/19 00:33:57;;;;;;;2.63;1.50;;;;;;;10.96;100.00;100956.88;1036033;28;20296;-75
2023/03/19 00:34:28;;;;;;;1.63;1.30;;;;;;;10.91;100.00;100962.03;1036780;28;20301;-75
2023/03/19 00:35:00;;;;;;;1.40;1.30;;;;;;;10.92;100.00;100958.31;1042979;28;20669;-75
2023/03/19 00:35:32;;;;;;;2.17;1.40;;;;;;;10.93;100.00;100962.63;1039291;28;20369;-75
2023/03/19 00:36:05;;;;;;;3.35;1.45;;;;;;;10.90;100.00;100960.38;1036850;28;20749;-74
2023/03/19 00:36:37;;;;;;;1.67;1.17;;;;;;;10.88;100.00;100962.44;1038089;28;20300;-75
2023/03/19 00:37:10;;;;;;;1.63;1.25;;;;;;;10.92;100.00;100963.66;1032049;28;20624;-75
2023/03/19 00:37:42;;;;;;;1.55;1.45;;;;;;;10.94;100.00;100972.25;1030894;28;20356;-75
2023/03/19 00:38:13;;;;;;;1.98;1.40;;;;;;;11.01;100.00;100970.38;1028182;28;20329;-75
2023/03/19 00:38:45;;;;;;;1.10;1.00;;;;;;;11.01;100.00;100967.72;1035650;28;20311;-74
2023/03/19 00:39:17;;;;;;;2.33;0.90;;;;;;;10.97;100.00;100961.19;1035528;28;20305;-75
2023/03/19 00:39:49;;;;;;;1.77;1.50;;;;;;;10.99;100.00;100964.44;1039523;28;20332;-75
2023/03/19 00:40:20;;;;;;;1.70;0.95;;;;;;;10.90;100.00;100957.72;1039378;28;20809;-75
2023/03/19 00:40:52;;;;;;;1.60;1.20;;;;;;;10.95;100.00;100963.22;1039861;28;20284;-74
2023/03/19 00:41:24;;;;;;;1.35;1.20;;;;;;;11.03;100.00;100968.31;1043230;28;20307;-75
2023/03/19 00:41:55;;;;;;;2.20;1.75;;;;;;;11.03;100.00;100962.97;1039377;28;20312;-75
2023/03/19 00:42:27;;;;;;;2.95;1.45;;;;;;;10.96;100.00;100960.38;1039699;28;20295;-74
2023/03/19 00:42:59;;;;;;;1.75;1.23;;;;;;;10.96;100.00;100970.22;1042708;28;20291;-74
2023/03/19 00:43:31;;;;;;;1.25;1.00;;;;;;;10.92;100.00;100966.31;1037115;28;20829;-75
2023/03/19 00:44:04;;;;;;;1.38;1.17;;;;;;;10.90;100.00;100963.06;1035511;28;20319;-75
2023/03/19 00:44:36;;;;;;;2.33;1.27;;;;;;;10.91;100.00;100967.34;1034992;28;21020;-74
2023/03/19 00:45:08;;;;;;;1.38;0.90;;;;;;;10.91;100.00;100968.16;1030987;28;20309;-75
2023/03/19 00:45:40;;;;;;;0.90;0.85;;;;;;;10.90;100.00;100971.03;1035413;28;20300;-74
2023/03/19 00:46:13;;;;;;;2.38;1.08;;;;;;;10.96;100.00;100965.69;1034706;28;20305;-74
2023/03/19 00:46:47;;;;;;;1.92;1.83;;;;;;;10.93;100.00;100967.94;1030872;28;20329;-74
2023/03/19 00:47:19;;;;;;;2.10;1.25;;;;;;;10.95;100.00;100976.53;1030940;28;20846;-75
2023/03/19 00:47:50;;;;;;;3.80;1.20;;;;;;;10.97;100.00;100970.00;1028659;28;20367;-75
2023/03/19 00:48:22;;;;;;;3.10;0.95;;;;;;;10.95;100.00;100971.22;1036270;28;20323;-75
2023/03/19 00:48:54;;;;;;;2.58;1.60;;;;;;;10.91;100.00;100973.50;1040564;28;20303;-75
2023/03/19 00:49:26;;;;;;;1.75;1.17;;;;;;;10.92;100.00;100974.31;1043296;28;20729;-75
2023/03/19 00:49:57;;;;;;;1.58;1.48;;;;;;;10.89;100.00;100972.06;1043419;28;20661;-74
2023/03/19 00:50:29;;;;;;;1.70;1.25;;;;;;;10.90;100.00;100971.03;1043557;28;20867;-75
2023/03/19 00:51:06;;;;;;;1.80;0.98;;;;;;;10.87;100.00;100976.81;1034555;28;20317;-75
2023/03/19 00:51:42;;;;;;;1.70;1.23;;;;;;;10.87;100.00;100971.47;1031001;28;20308;-75
2023/03/19 00:52:14;;;;;;;1.95;1.27;;;;;;;10.84;100.00;100976.22;1026683;28;20780;-75
2023/03/19 00:52:46;;;;;;;1.33;1.20;;;;;;;10.87;100.00;100979.47;1030164;28;20309;-75
2023/03/19 00:53:18;;;;;;;0.90;0.90;;;;;;;10.88;100.00;100973.13;1033511;28;20787;-75
2023/03/19 00:53:50;;;;;;;2.15;0.90;;;;;;;10.87;100.00;100982.13;1034637;28;20304;-75
2023/03/19 00:54:22;;;;;;;6.53;1.40;;;;;;;10.85;100.00;100979.69;1031116;28;20309;-75
2023/03/19 00:54:54;;;;;;;1.85;1.27;;;;;;;10.87;100.00;100976.81;1035767;28;20361;-75
2023/03/19 00:55:26;;;;;;;2.35;0.95;;;;;;;10.84;100.00;100984.19;1035573;28;20303;-75
2023/03/19 00:55:58;;;;;;;1.02;0.90;;;;;;;10.78;100.00;100978.91;1039752;28;20296;-74
2023/03/19 00:56:29;;;;;;;1.58;1.33;;;;;;;10.78;100.00;100978.91;1038997;28;20300;-75
2023/03/19 00:57:01;;;;;;;1.50;1.40;;;;;;;10.72;100.00;100977.13;1038952;28;20295;-75
2023/03/19 00:57:32;;;;;;;1.83;1.15;;;;;;;10.75;100.00;100987.34;1035031;28;20301;-75
2023/03/19 00:58:05;;;;;;;2.33;1.00;;;;;;;10.68;100.00;100981.22;1035489;28;20304;-75
2023/03/19 00:58:39;;;;;;;1.48;1.02;;;;;;;10.71;100.00;100978.16;1037059;28;20288;-75
2023/03/19 00:59:11;;;;;;;1.58;1.00;;;;;;;10.63;100.00;100971.19;1035684;28;20388;-75
2023/03/19 00:59:43;;;;;;;1.08;0.90;;;;;;;10.56;100.00;100981.09;1035055;28;20419;-75
2023/03/19 01:00:16;;;;;;;2.20;1.05;;;;;;;10.57;100.00;100979.22;1035138;28;20304;-75
2023/03/19 01:00:52;;;;;;;1.20;1.00;;;;;;;10.53;100.00;100984.16;1035746;28;20297;-75
2023/03/19 01:01:24;;;;;;;1.67;1.15;;;;;;;10.48;100.00;100989.31;1034875;28;20706;-75
2023/03/19 01:01:55;;;;;;;2.30;1.33;;;;;;;10.47;100.00;100982.38;1030702;28;20320;-75
2023/03/19 01:02:27;;;;;;;3.38;1.17;;;;;;;10.48;100.00;100984.00;1034793;28;20300;-75
2023/03/19 01:02:59;;;;;;;3.63;1.05;;;;;;;10.42;100.00;100991.00;1031084;28;20294;-75
2023/03/19 01:03:31;;;;;;;1.27;1.05;;;;;;;10.50;100.00;100987.25;1030991;28;20395;-75
2023/03/19 01:04:02;;;;;;;1.60;1.50;;;;;;;10.45;100.00;100987.09;1036064;28;20731;-75
2023/03/19 01:04:34;;;;;;;1.60;1.50;;;;;;;10.42;100.00;100977.69;1043971;28;20697;-75
2023/03/19 01:05:07;;;;;;;2.65;1.30;;;;;;;10.30;100.00;100982.00;1039140;28;20710;-75
2023/03/19 01:05:38;;;;;;;1.02;0.88;;;;;;;10.27;100.00;100981.63;1038436;28;20852;-75
2023/03/19 01:06:11;;;;;;;2.83;1.17;;;;;;;10.33;100.00;100981.59;1033023;28;20327;-75
2023/03/19 01:06:43;;;;;;;3.63;1.20;;;;;;;10.43;100.00;100991.81;1031363;28;20792;-75
2023/03/19 01:07:15;;;;;;;1.27;1.17;;;;;;;10.41;100.00;100983.22;1035810;28;20301;-75
2023/03/19 01:07:46;;;;;;;2.25;1.70;;;;;;;10.39;100.00;100986.06;1037362;28;20297;-75
2023/03/19 01:08:18;;;;;;;1.63;0.98;;;;;;;10.44;100.00;100988.13;1039470;28;20303;-75
2023/03/19 01:08:50;;;;;;;2.13;1.08;;;;;;;10.36;100.00;100975.03;1038899;28;20331;-75
2023/03/19 01:09:22;;;;;;;1.65;1.10;;;;;;;10.31;100.00;100977.50;1039579;28;20292;-75
2023/03/19 01:09:53;;;;;;;1.67;1.10;;;;;;;10.28;100.00;100977.94;1041301;28;20353;-75
2023/03/19 01:10:25;;;;;;;2.60;1.70;;;;;;;10.39;100.00;100977.25;1042828;28;20292;-75
2023/03/19 01:11:09;;;;;;;3.08;2.10;;;;;;;10.39;100.00;100980.72;1042978;28;20333;-75
2023/03/19 01:11:41;;;;;;;4.18;1.42;;;;;;;10.45;100.00;100969.25;1038786;28;20679;-75
2023/03/19 01:12:13;;;;;;;1.45;1.30;;;;;;;10.38;100.00;100972.97;1034838;28;20360;-75
2023/03/19 01:12:44;;;;;;;6.43;1.83;;;;;;;10.38;100.00;100972.97;1030902;28;20293;-75
2023/03/19 01:13:16;;;;;;;1.63;1.52;;;;;;;10.29;100.00;100974.25;1023604;28;20879;-75
2023/03/19 01:13:48;;;;;;;2.13;1.33;;;;;;;10.26;100.00;100972.00;1027312;28;20294;-75
2023/03/19 01:14:20;;;;;;;3.25;1.52;;;;;;;10.20;100.00;100982.47;1027126;28;20310;-75
2023/03/19 01:14:52;;;;;;;1.88;1.48;;;;;;;10.20;100.00;100985.13;1031981;28;20308;-75
2023/03/19 01:15:23;;;;;;;2.97;1.45;;;;;;;10.25;100.00;100973.03;1039427;28;20666;-75
2023/03/19 01:15:55;;;;;;;2.08;1.50;;;;;;;10.16;100.00;100980.41;1035228;28;21585;-75
2023/03/19 01:16:27;;;;;;;3.33;1.60;;;;;;;10.18;100.00;100973.84;1031111;28;20293;-75
2023/03/19 01:16:59;;;;;;;2.58;1.33;;;;;;;10.25;100.00;100973.03;1026451;28;20361;-76
2023/03/19 01:17:31;;;;;;;3.08;1.38;;;;;;;10.23;100.00;100969.75;1026196;28;21182;-75
2023/03/19 01:18:04;;;;;;;1.50;1.40;;;;;;;10.28;100.00;100967.28;1031677;28;20305;-75
2023/03/19 01:18:36;;;;;;;1.60;1.27;;;;;;;10.17;100.00;100972.22;1034788;28;20293;-75
2023/03/19 01:19:08;;;;;;;1.52;1.42;;;;;;;10.03;100.00;100970.59;1038988;28;20674;-75
2023/03/19 01:19:40;;;;;;;2.97;1.45;;;;;;;9.98;100.00;100975.75;1035957;28;20311;-75
2023/03/19 01:20:13;;;;;;;2.08;1.88;;;;;;;9.88;100.00;100975.38;1035033;28;20312;-76
2023/03/19 01:20:44;;;;;;;1.65;1.55;;;;;;;10.00;100.00;100964.88;1035409;28;20885;-75
2023/03/19 01:21:16;;;;;;;2.95;2.25;;;;;;;9.96;100.00;100975.13;1038449;28;20390;-75
2023/03/19 01:21:51;;;;;;;3.15;1.75;;;;;;;9.91;100.00;100969.63;1035977;28;20823;-75
2023/03/19 01:22:26;;;;;;;1.88;1.27;;;;;;;9.91;100.00;100972.28;1038697;28;20304;-75
2023/03/19 01:23:01;;;;;;;2.67;1.48;;;;;;;9.82;100.00;100974.31;1040933;28;20307;-76
2023/03/19 01:23:33;;;;;;;3.65;1.40;;;;;;;9.88;100.00;100972.69;1040954;28;20296;-75
2023/03/19 01:24:05;;;;;;;1.75;1.65;;;;;;;9.96;100.00;100969.81;1038888;28;20773;-75
2023/03/19 01:24:36;;;;;;;1.63;1.50;;;;;;;9.83;100.00;100969.81;1042021;28;20303;-75
2023/03/19 01:25:10;;;;;;;3.53;3.22;;;;;;;9.93;100.00;100975.56;1042221;28;20303;-75
2023/03/19 01:25:47;;;;;;;1.95;1.40;;;;;;;9.87;100.00;100969.22;1033111;28;20356;-75
2023/03/19 01:26:19;;;;;;;2.63;2.20;;;;;;;9.91;100.00;100966.97;1032351;28;20388;-76
2023/03/19 01:26:54;;;;;;;1.95;1.85;;;;;;;9.88;100.00;100967.38;1036450;28;20821;-75
2023/03/19 01:27:36;;;;;;;1.65;1.55;;;;;;;9.90;100.00;100970.66;1038055;28;20308;-75
2023/03/19 01:28:08;;;;;;;2.42;1.50;;;;;;;9.90;100.00;100965.34;1031660;28;20791;-75
2023/03/19 01:28:42;;;;;;;2.47;1.70;;;;;;;9.81;100.00;100966.56;1029959;28;20895;-75
2023/03/19 01:29:15;;;;;;;2.85;1.60;;;;;;;9.90;100.00;100975.97;1033951;28;20676;-75
2023/03/19 01:29:47;;;;;;;2.72;1.60;;;;;;;9.85;100.00;100967.78;1032611;28;20795;-75
2023/03/19 01:30:25;;;;;;;2.45;1.77;;;;;;;9.91;100.00;100972.28;1031264;28;20348;-75
2023/03/19 01:31:22;;;;;;;1.55;1.45;;;;;;;9.78;100.00;100967.78;1032033;28;20293;-75
2023/03/19 01:32:11;;;;;;;2.92;1.48;;;;;;;9.75;100.00;100967.41;1036648;28;20309;-75
2023/03/19 01:33:19;;;;;;;1.83;1.67;;;;;;;9.88;100.00;100972.69;1035608;28;20281;-75
2023/03/19 01:34:06;;;;;;;2.90;1.67;;;;;;;9.81;100.00;100971.88;1031513;28;20309;-75
2023/03/19 01:34:44;;;;;;;2.47;1.50;;;;;;;9.82;100.00;100974.31;1022952;28;20307;-75
2023/03/19 01:35:19;;;;;;;2.35;1.70;;;;;;;9.67;100.00;100967.63;1019995;29;20315;-75
2023/03/19 01:35:51;;;;;;;1.70;1.55;;;;;;;9.66;100.00;100969.47;1023351;28;20298;-75
2023/03/19 01:36:26;;;;;;;2.67;1.58;;;;;;;9.68;100.00;100971.91;1037028;28;20427;-75
2023/03/19 01:37:06;;;;;;;1.67;1.50;;;;;;;9.59;100.00;100968.66;1035433;28;20313;-75
2023/03/19 01:37:38;;;;;;;1.77;1.63;;;;;;;9.66;100.00;100966.00;1033380;28;20097;-75
2023/03/19 01:38:11;;;;;;;1.70;1.50;;;;;;;9.54;100.00;100973.75;1031788;28;20313;-75
2023/03/19 01:38:43;;;;;;;1.92;1.50;;;;;;;9.46;100.00;100969.47;1024035;28;20848;-75
2023/03/19 01:39:18;;;;;;;2.45;1.73;;;;;;;9.40;100.00;100970.31;1024513;28;20393;-75
2023/03/19 01:39:51;;;;;;;3.22;1.70;;;;;;;9.38;100.00;100967.03;1033452;28;20305;-75
2023/03/19 01:40:22;;;;;;;2.35;1.50;;;;;;;9.59;100.00;100969.47;1036590;28;20358;-75
2023/03/19 01:40:55;;;;;;;4.13;1.73;;;;;;;9.51;100.00;100961.69;1035947;28;20316;-75
2023/03/19 01:41:26;;;;;;;1.73;1.63;;;;;;;9.59;100.00;100973.97;1035470;28;20301;-75
2023/03/19 01:42:03;;;;;;;2.00;1.35;;;;;;;9.49;100.00;100965.59;1032774;28;20325;-75
2023/03/19 01:43:17;;;;;;;2.97;1.73;;;;;;;9.47;100.00;100963.13;1029651;28;20377;-75
2023/03/19 01:43:54;;;;;;;1.60;1.33;;;;;;;9.45;100.00;100962.53;1035933;28;20297;-75
2023/03/19 01:44:40;;;;;;;3.35;1.10;;;;;;;9.55;100.00;100973.56;1034970;28;20834;-75
2023/03/19 01:45:49;;;;;;;2.75;1.73;;;;;;;9.55;100.00;100968.22;1027142;28;20330;-75
2023/03/19 01:46:40;;;;;;;1.40;1.35;;;;;;;9.47;100.00;100962.31;1036414;28;20331;-75
2023/03/19 01:47:32;;;;;;;1.40;1.20;;;;;;;9.53;100.00;100967.63;1044055;28;20300;-75
2023/03/19 01:48:22;;;;;;;2.80;1.15;;;;;;;9.50;100.00;100965.38;1036261;28;20379;-75
2023/03/19 01:49:06;;;;;;;1.38;1.30;;;;;;;9.77;100.00;100965.34;1037024;28;20312;-75
2023/03/19 01:49:39;;;;;;;4.10;2.55;;;;;;;9.72;100.00;100963.31;1038742;28;20291;-75
2023/03/19 01:50:38;;;;;;;1.92;1.75;;;;;;;9.91;100.00;100956.31;1035825;28;20754;-75
2023/03/19 01:51:35;;;;;;;7.03;1.90;;;;;;;9.89;100.00;100961.84;1031346;28;20384;-75
2023/03/19 01:52:23;;;;;;;2.00;1.80;;;;;;;9.84;100.00;100952.84;1032804;28;20388;-76
2023/03/19 01:53:19;;;;;;;5.97;2.03;;;;;;;9.74;100.00;100955.94;1035450;28;20666;-76
2023/03/19 01:53:59;;;;;;;1.98;1.65;;;;;;;9.72;100.00;100952.66;1034890;28;20683;-76
2023/03/19 01:54:51;;;;;;;2.95;1.98;;;;;;;9.64;100.00;100944.91;1035499;28;20358;-76
2023/03/19 01:55:43;;;;;;;1.48;1.40;;;;;;;9.48;100.00;100946.16;1043150;28;20852;-76
2023/03/19 01:56:27;;;;;;;3.17;2.00;;;;;;;9.49;100.00;100947.78;1038112;28;20412;-75
2023/03/19 01:57:11;;;;;;;2.03;1.92;;;;;;;9.47;100.00;100949.84;1031304;28;20320;-75
2023/03/19 01:58:01;;;;;;;3.40;1.98;;;;;;;9.53;100.00;100941.03;1031069;28;20425;-75
2023/03/19 01:58:55;;;;;;;2.13;1.85;;;;;;;9.31;100.00;100939.63;1035701;28;20339;-75
2023/03/19 01:59:52;;;;;;;1.83;1.73;;;;;;;9.41;100.00;100942.69;1035401;28;20301;-75
2023/03/19 02:00:42;;;;;;;2.45;1.65;;;;;;;9.28;100.00;100940.03;1036755;28;20326;-75
2023/03/19 02:01:14;;;;;;;1.77;1.67;;;;;;;9.26;100.00;100944.72;1041303;28;20311;-75
2023/03/19 02:01:54;;;;;;;1.58;1.48;;;;;;;9.19;100.00;100938.59;1043753;28;20785;-75
2023/03/19 02:02:30;;;;;;;6.85;1.90;;;;;;;9.16;100.00;100944.34;1039598;28;20300;-75
2023/03/19 02:03:07;;;;;;;1.83;1.70;;;;;;;9.16;100.00;100945.16;1035372;28;20312;-75
2023/03/19 02:03:55;;;;;;;2.35;2.13;;;;;;;9.13;100.00;100944.75;1035428;28;20305;-75
2023/03/19 02:04:31;;;;;;;2.08;1.88;;;;;;;9.09;100.00;100951.50;1039351;28;20794;-75
2023/03/19 02:05:10;;;;;;;2.28;1.48;;;;;;;9.10;100.00;100947.81;1042676;28;21087;-75
2023/03/19 02:05:44;;;;;;;3.63;2.03;;;;;;;8.91;100.00;100947.59;1045820;28;20299;-75
2023/03/19 02:06:18;;;;;;;1.58;1.48;;;;;;;8.91;100.00;100950.25;1045817;28;20304;-74
2023/03/19 02:06:50;;;;;;;2.35;2.15;;;;;;;8.88;100.00;100953.31;1037283;28;20296;-75
2023/03/19 02:07:22;;;;;;;2.28;2.08;;;;;;;8.79;100.00;100951.88;1041817;28;20300;-75
2023/03/19 02:07:58;;;;;;;2.40;1.98;;;;;;;8.78;100.00;100954.72;1048427;28;20328;-75
2023/03/19 02:08:31;;;;;;;1.83;1.73;;;;;;;8.81;100.00;100952.47;1047881;28;20310;-75
2023/03/19 02:09:03;;;;;;;1.77;1.67;;;;;;;8.81;100.00;100960.44;1042545;28;21001;-75
2023/03/19 02:09:35;;;;;;;2.00;1.42;;;;;;;8.81;100.00;100955.13;1035474;28;20336;-75
2023/03/19 02:10:15;;;;;;;2.38;1.83;;;;;;;8.85;100.00;100956.38;1036268;28;20431;-76
2023/03/19 02:10:48;;;;;;;2.13;1.85;;;;;;;8.68;100.00;100949.78;1040868;28;20312;-75
2023/03/19 02:11:20;;;;;;;1.45;1.35;;;;;;;8.67;100.00;100956.13;1038602;28;20054;-76
2023/03/19 02:11:53;;;;;;;1.55;1.33;;;;;;;8.71;100.00;100954.69;1037857;28;20539;-76
2023/03/19 02:12:25;;;;;;;1.63;1.52;;;;;;;8.67;100.00;100956.94;1039595;28;20802;-76
2023/03/19 02:12:56;;;;;;;1.95;1.70;;;;;;;8.64;100.00;100964.47;1035274;28;20822;-76
2023/03/19 02:13:28;;;;;;;2.70;1.48;;;;;;;8.52;100.00;100956.28;1036834;28;20303;-76
2023/03/19 02:14:01;;;;;;;3.42;2.15;;;;;;;8.54;100.00;100951.59;1036383;28;20289;-75
2023/03/19 02:14:33;;;;;;;1.80;1.60;;;;;;;8.53;100.00;100957.09;1039305;28;20654;-75
2023/03/19 02:15:06;;;;;;;3.53;1.50;;;;;;;8.48;100.00;100954.22;1031863;28;20312;-75
2023/03/19 02:15:38;;;;;;;4.22;1.92;;;;;;;8.38;100.00;100951.13;1031671;28;20327;-75
2023/03/19 02:16:10;;;;;;;2.42;2.00;;;;;;;8.41;100.00;100956.03;1031294;28;20312;-76
2023/03/19 02:16:43;;;;;;;2.10;1.90;;;;;;;8.40;100.00;100951.75;1031271;28;20310;-76
2023/03/19 02:17:15;;;;;;;2.10;1.88;;;;;;;8.47;100.00;100952.56;1028248;28;20313;-75
2023/03/19 02:17:47;;;;;;;3.28;1.73;;;;;;;8.39;100.00;100950.09;1029096;28;20357;-76
2023/03/19 02:18:20;;;;;;;1.50;1.40;;;;;;;8.42;100.00;100949.69;1039819;28;20860;-77
2023/03/19 02:18:53;;;;;;;2.72;2.53;;;;;;;8.33;100.00;100947.25;1043302;28;20299;-76
2023/03/19 02:19:37;;;;;;;2.17;1.98;;;;;;;8.32;100.00;100950.88;1040957;28;20796;-75
2023/03/19 02:20:13;;;;;;;4.20;1.60;;;;;;;8.32;100.00;100950.06;1041756;28;20332;-75
2023/03/19 02:21:10;;;;;;;2.55;1.70;;;;;;;8.26;100.00;100949.03;1041101;28;20291;-75
2023/03/19 02:21:42;;;;;;;1.55;1.45;;;;;;;8.29;100.00;100950.47;1032730;28;20324;-76
2023/03/19 02:22:16;;;;;;;3.00;1.60;;;;;;;8.22;100.00;100946.97;1033954;28;20316;-76
2023/03/19 02:23:16;;;;;;;1.73;1.63;;;;;;;8.10;100.00;100946.69;1039335;28;20310;-76
2023/03/19 02:23:54;;;;;;;;;;;;;;;8.43;100.00;100951.34;1039996;28;20304;-75
2023/03/19 02:24:53;;;;;;;3.58;3.03;;;;;;;8.28;100.00;100954.94;1042453;28;20329;-75
2023/03/19 02:25:43;;;;;;;2.60;1.50;;;;;;;8.18;100.00;100943.88;1035366;28;20301;-76
2023/03/19 02:26:26;;;;;;;3.72;2.53;;;;;;;8.14;100.00;100947.94;1035790;28;20581;-76
2023/03/19 02:27:05;;;;;;;1.60;1.45;;;;;;;8.17;100.00;100950.19;1035182;28;20695;-76
2023/03/19 02:27:37;;;;;;;2.08;1.90;;;;;;;8.12;100.00;100955.28;1031380;28;20367;-75
2023/03/19 02:28:09;;;;;;;1.70;1.60;;;;;;;8.01;100.00;100953.19;1033538;28;20305;-75
2023/03/19 02:28:45;;;;;;;1.52;1.40;;;;;;;8.08;100.00;100956.69;1035697;28;20308;-75
2023/03/19 02:29:20;;;;;;;2.35;1.98;;;;;;;8.18;100.00;100954.47;1035671;28;20312;-75
2023/03/19 02:29:52;;;;;;;1.95;1.75;;;;;;;8.23;100.00;100954.72;1036535;28;20301;-75
2023/03/19 02:30:32;;;;;;;1.70;1.60;;;;;;;8.21;100.00;100954.06;1038488;28;20312;-75
2023/03/19 02:31:10;;;;;;;1.80;1.70;;;;;;;8.30;100.00;100949.44;1035792;28;20713;-75
2023/03/19 02:31:41;;;;;;;3.65;2.10;;;;;;;8.26;100.00;100956.97;1037080;28;20652;-76
2023/03/19 02:32:13;;;;;;;2.60;1.50;;;;;;;8.26;100.00;100953.50;1037327;28;20323;-76
2023/03/19 02:32:45;;;;;;;1.63;1.52;;;;;;;8.36;100.00;100961.94;1041042;28;20446;-76
2023/03/19 02:33:18;;;;;;;1.63;1.52;;;;;;;8.32;100.00;100960.69;1043577;28;20298;-76
2023/03/19 02:34:31;;;;;;;3.15;1.83;;;;;;;8.35;100.00;100965.63;1043516;28;20871;-75
2023/03/19 02:35:03;;;;;;;2.30;1.35;;;;;;;8.33;100.00;100960.50;1037297;28;20293;-75
2023/03/19 02:35:35;;;;;;;1.77;1.67;;;;;;;8.35;100.00;100957.66;1043762;28;20295;-75
2023/03/19 02:36:14;;;;;;;3.97;1.85;;;;;;;8.39;100.00;100966.03;1035280;28;20308;-76
2023/03/19 02:36:50;;;;;;;1.48;1.35;;;;;;;8.54;100.00;100954.25;1029992;28;20301;-75
2023/03/19 02:37:25;;;;;;;4.10;2.60;;;;;;;8.51;100.00;100964.47;1027371;28;20334;-75
2023/03/19 02:37:57;;;;;;;2.25;2.05;;;;;;;8.56;100.00;100964.69;1022519;28;20330;-75
2023/03/19 02:38:29;;;;;;;1.70;1.60;;;;;;;8.68;100.00;100966.53;1028724;28;20298;-75
2023/03/19 02:39:03;;;;;;;2.28;2.17;;;;;;;8.53;100.00;100963.25;1036325;28;20344;-75
2023/03/19 02:39:47;;;;;;;2.33;1.92;;;;;;;8.52;100.00;100972.22;1036553;28;20304;-76
2023/03/19 02:40:21;;;;;;;2.00;1.80;;;;;;;8.54;100.00;100966.72;1041861;28;20334;-76
2023/03/19 02:41:07;;;;;;;2.05;1.90;;;;;;;8.54;100.00;100969.38;1043866;28;20694;-76
2023/03/19 02:41:40;;;;;;;2.47;1.48;;;;;;;8.59;100.00;100964.28;1046632;28;20803;-75
2023/03/19 02:42:14;;;;;;;2.30;2.10;;;;;;;8.68;100.00;100966.53;1043393;28;20303;-76
2023/03/19 02:42:45;;;;;;;4.25;2.30;;;;;;;8.67;100.00;100974.69;1043786;28;20302;-76
2023/03/19 02:43:20;;;;;;;2.95;2.65;;;;;;;8.67;100.00;100964.91;1035303;28;20316;-76
2023/03/19 02:43:52;;;;;;;1.92;1.80;;;;;;;8.66;100.00;100967.75;1032916;28;20301;-76